Strona główna
METAR-TAF:

METAR-TAF

Lotnisko :

Châteauroux, Francja

Szerokość geograficzna: 46-51N, Długość geograficzna: 001-43E, wysokość: 160 m

Aktualna obserwacja pogody

Raport powstał 42 minut temu, godzina 05:00 UTC
Wiatr 2 kt od północny wschód
Temperatura 11°C
Wilgotność 87%
Ciśnienie 1029 hPa
Widzialność 10 km lub więcej
Brak chmur poniżej 1500 m i brak chmur cumulonimbus

METAR: LFLX 280500Z AUTO 04002KT CAVOK 11/09 Q1029 NOSIG

czas: 07:42 (05:42 UTC)

Prognoza

Raport powstał 42 minut temu, godzina 05:00 UTC
Prognoza ważna od 28 godzina 06 UTC do 29 godzina 12 UTC
Wiatr 10 kt od północny wschód
Widzialność 10 km lub więcej
Brak chmur poniżej 1500 m i brak chmur cumulonimbus

TAF: LFLX 280500Z 2806/2912 05010KT CAVOK

Obserwacja i prognoza pogody dla ponad 4000 lotnisk (raport METAR i TAF).

Dostępne stacje oznaczono żółtymi i czerwonymi punktami na mapie.

Najedź kursorem aby zobaczyć nazwę stacji.

Kliknij aby zobaczyć obserwacje i prognozy pogody.

Aby zmienić mapę: kliknij na zielony przycisk z czarnym krzyżykiem, aby powiększyć; na zielony przycisk z myślnikiem, aby pomniejszyć; na zielone strzałki, aby przejść do map sąsiednich.


METAR-TAF: